Aviation Digital Data Service (ADDS)

Output produced by METARs form (1234 UTC 25 June 2019)
found at http://www.aviationweather.gov/metar/data/
 
Forecast for: RKJK (KUNSAN (US/KOR-A, KR)
Text: TAF RKJK 250700Z 2507/2613 31009KT 9999 FEW200 QNH2988INS
Forecast period: 0700 UTC 25 June 2019 to 0500 UTC 26 June 2019
Forecast type: FROM: standard forecast or significant change
Winds: from the NW (310 degrees) at 10 MPH (9 knots; 4.6 m/s)
Visibility: 6 or more miles 10+ km)
Ceiling: at least 12,000 feet AGL
Clouds: few clouds at 20000 feet AGL
Weather: no significant weather forecast for this period
Text: TEMPO 2511/2517 29009KT 4800 BR SCT030 BKN040
Forecast period: 1100 to 1700 UTC 25 June 2019
Forecast type: TEMPORARY: The following changes expected for less than half the time period
Winds: from the WNW (290 degrees) at 10 MPH (9 knots; 4.6 m/s)
Visibility: 2.98 miles (4.80 km)
Ceiling: 4000 feet AGL
Clouds: scattered clouds at 3000 feet AGL
broken clouds at 4000 feet AGL
Weather: BR  (mist)
Text: BECMG 2605/2607 26006KT 4800 -RA BKN030 OVC060 QNH2970INS TX29/2508Z TN18/2518Z
Forecast period: 0500 to 1300 UTC 26 June 2019
Forecast type: BECOMING: Conditions expected to become as follows by 0700 UTC 26 June 2019
Winds: from the W (260 degrees) at 7 MPH (6 knots; 3.1 m/s)
Visibility: 2.98 miles (4.80 km)
Ceiling: 3000 feet AGL
Clouds: broken clouds at 3000 feet AGL
overcast cloud deck at 6000 feet AGL
Weather: -RA  (light rain)